KCMA

Camarillo Airport

Camarillo, California, USA
KCMA 182320Z 1900/1924 23008KT P6SM SCT200 FM190200 VRB03KT P6SM SCT200 FM191200 06007KT P6SM SCT200 FM191600 06012G18KT P6SM SCT200 FM192200 07008KT P6SM SCT200
Issued Valid From Valid To
Jan-18 @ 23:20 UTC
(3 hours ago)
Jan-19 @ 00:00 UTC
(2 hours ago)
Jan-20 @ 00:00 UTC
(in 22 hours)
Expired Click to View Jan-19 @ 00:00 to Jan-19 @ 02:00
KCMA 182320Z 1900/1924 23008KT P6SM SCT200
Wind Visibility Clouds
230° at 8 knots Greater than 6 miles
  • Scattered at 20,000' AGL
From Jan-19 @ 02:00 to Jan-19 @ 12:00
FM190200 VRB03KT P6SM SCT200
Wind Visibility Clouds
Variable at 3 knots Greater than 6 miles
  • Scattered at 20,000' AGL
From Jan-19 @ 12:00 to Jan-19 @ 16:00
FM191200 06007KT P6SM SCT200
Wind Visibility Clouds
60° at 7 knots Greater than 6 miles
  • Scattered at 20,000' AGL
From Jan-19 @ 16:00 to Jan-19 @ 22:00
FM191600 06012G18KT P6SM SCT200
Wind Visibility Clouds
60° at 12 knots
 Gusting to 18 knots
Greater than 6 miles
  • Scattered at 20,000' AGL
From Jan-19 @ 22:00 to Jan-20 @ 00:00
FM192200 07008KT P6SM SCT200
Wind Visibility Clouds
70° at 8 knots Greater than 6 miles
  • Scattered at 20,000' AGL
KCMA 182320Z 1900/1924 23008KT P6SM SCT200 FM190200 VRB03KT P6SM SCT200 FM191200 06007KT P6SM SCT200 FM191600 06012G18KT P6SM SCT200 FM192200 07008KT P6SM SCT200
Issued Jan-18 @ 23:20 UTC
(3 hours ago)
Valid From Jan-19 @ 00:00 UTC
(2 hours ago)
Valid To Jan-20 @ 00:00 UTC
(in 22 hours)
Jan-19 @ 00:00 - Jan-19 @ 02:00
Wind Visibility
230° at 8 knots Greater than 6 miles
Clouds
  • Scattered at 20,000' AGL
From Jan-19 @ 02:00 - Jan-19 @ 12:00
Wind Visibility
Variable at 3 knots Greater than 6 miles
Clouds
  • Scattered at 20,000' AGL
From Jan-19 @ 12:00 - Jan-19 @ 16:00
Wind Visibility
60° at 7 knots Greater than 6 miles
Clouds
  • Scattered at 20,000' AGL
From Jan-19 @ 16:00 - Jan-19 @ 22:00
Wind Visibility
60° at 12 knots
 Gusting to 18 knots
Greater than 6 miles
Clouds
  • Scattered at 20,000' AGL
From Jan-19 @ 22:00 - Jan-20 @ 00:00
Wind Visibility
70° at 8 knots Greater than 6 miles
Clouds
  • Scattered at 20,000' AGL